KEDN

Enterprise Municipal Airport

Enterprise, Alabama, USA
METAR KEDN 170955Z AUTO 35007G17KT 5SM -SN OVC009 M03/M04 A3040 RMK AO2 P0001 T10331041
Observed Flight Rules
Jan-17 @ 09:55 UTC (35 minutes ago) Instrument Flight Rules
Wind Visibility Clouds Conditions
350° at 7 knots
 Gusting to 17 knots
5 miles
  • Overcast at 900' AGL
  • Light Snow
Temperatures Readings Precipitation
Current -3°C / 27°F
Dewpoint -4°C / 25°F
Humidity 93%
Altimeter 30.4" Hg
Pressure 1029 hPa
Elevation 110
Current Rain 0.01
METAR KEDN 170955Z AUTO 35007G17KT 5SM -SN OVC009 M03/M04 A3040 RMK AO2 P0001 T10331041
Observed Flight Rules
Jan-17 @ 09:55 UTC
(35 minutes ago)
IFR
Wind Visibility
350° at 7 knots
 Gusting to 17 knots
5 miles
Clouds
  • Overcast at 900' AGL
Conditions
  • Light Snow
Temperature Dewpoint
-3°C / 27°F -4°C / 25°F
Humidity Altimeter Pressure
93% 30.4" Hg 1029 hPa
Current Rain
0.01